createdAt,value
2018-09-04T00:02:10.262Z,101595.99
2018-09-04T00:04:38.893Z,101595.69
2018-09-04T00:07:07.428Z,101595.28
2018-09-04T00:09:36.005Z,101590.38
2018-09-04T00:12:04.642Z,101586.48
2018-09-04T00:14:33.441Z,101590.54
2018-09-04T00:17:02.013Z,101588.88
2018-09-04T00:19:30.701Z,101582.48
2018-09-04T00:21:59.189Z,101582.09
2018-09-04T00:24:27.812Z,101575.16
2018-09-04T00:26:56.394Z,101573.53
2018-09-04T00:29:25.062Z,101573.53
2018-09-04T00:31:53.558Z,101574.45
2018-09-04T00:34:22.185Z,101567.97
2018-09-04T00:36:50.658Z,101567.59
2018-09-04T00:39:19.143Z,101571.19
2018-09-04T00:41:47.778Z,101574.38
2018-09-04T00:44:16.462Z,101566.19
2018-09-04T00:46:45.170Z,101476.38
2018-09-04T00:49:13.654Z,101573.91
2018-09-04T00:51:42.424Z,101569.16
2018-09-04T00:54:10.966Z,101563.52
2018-09-04T00:56:39.506Z,101574.21
2018-09-04T00:59:08.204Z,101564.31
2018-09-04T01:01:36.898Z,101573.04
2018-09-04T01:04:05.644Z,101569.63
2018-09-04T01:06:34.434Z,101571.48
2018-09-04T01:09:03.778Z,101567.12
2018-09-04T01:11:32.247Z,101564.05
2018-09-04T01:14:01.820Z,101571.80
2018-09-04T01:16:30.414Z,101565.69
2018-09-04T01:18:58.966Z,101564.44
2018-09-04T01:21:27.630Z,101563.61
2018-09-04T01:23:56.100Z,101562.43
2018-09-04T01:26:24.790Z,101572.25
2018-09-04T01:28:53.318Z,101573.20
2018-09-04T01:31:22.066Z,101577.71
2018-09-04T01:33:50.523Z,101575.13
2018-09-04T01:36:19.139Z,101575.20
2018-09-04T01:38:47.757Z,101573.50
2018-09-04T01:41:16.303Z,101578.02
2018-09-04T01:43:44.982Z,101568.77
2018-09-04T01:46:13.440Z,101576.95
2018-09-04T01:48:42.846Z,101572.97
2018-09-04T01:51:11.541Z,101579.95
2018-09-04T01:53:40.197Z,101561.59
2018-09-04T01:56:08.751Z,101575.63
2018-09-04T01:58:37.350Z,101577.17
2018-09-04T02:01:06.037Z,101578.58
2018-09-04T02:03:34.600Z,101571.19
2018-09-04T02:06:03.218Z,101481.58
2018-09-04T02:08:31.706Z,101579.36
2018-09-04T02:11:00.834Z,101575.46
2018-09-04T02:13:29.322Z,101581.30
2018-09-04T02:15:58.069Z,101562.94
2018-09-04T02:18:26.674Z,101567.80
2018-09-04T02:20:55.204Z,101568.02
2018-09-04T02:23:23.804Z,101574.16
2018-09-04T02:25:52.276Z,101574.31
2018-09-04T02:28:21.188Z,101564.17
2018-09-04T02:30:49.670Z,101571.19
2018-09-04T02:33:18.354Z,101571.19
2018-09-04T02:35:46.959Z,101564.17
2018-09-04T02:38:15.738Z,101565.16
2018-09-04T02:40:44.210Z,101564.32
2018-09-04T02:43:12.721Z,101561.67
2018-09-04T02:45:41.595Z,101567.73
2018-09-04T02:48:10.181Z,101553.30
2018-09-04T02:50:38.712Z,101557.69
2018-09-04T02:53:07.194Z,101546.67
2018-09-04T02:55:35.840Z,101549.32
2018-09-04T02:58:04.390Z,101544.09
2018-09-04T03:00:32.879Z,101538.86
2018-09-04T03:03:01.498Z,101529.64
2018-09-04T03:05:29.970Z,101546.97
2018-09-04T03:07:59.374Z,101543.41
2018-09-04T03:10:27.848Z,101481.54
2018-09-04T03:12:56.441Z,101535.18
2018-09-04T03:15:25.096Z,101470.28
2018-09-04T03:17:53.729Z,101534.00
2018-09-04T03:20:22.320Z,101529.56
2018-09-04T03:22:50.814Z,101534.56
2018-09-04T03:25:19.534Z,101534.56
2018-09-04T03:27:48.011Z,101537.73
2018-09-04T03:30:16.672Z,101533.84
2018-09-04T03:32:45.282Z,101533.53
2018-09-04T03:35:14.039Z,101528.75
2018-09-04T03:37:42.675Z,101525.72
2018-09-04T03:40:11.274Z,101538.03
2018-09-04T03:42:40.019Z,101526.55
2018-09-04T03:45:09.235Z,101534.58
2018-09-04T03:47:37.936Z,101536.70
2018-09-04T03:50:08.179Z,101539.73
2018-09-04T03:52:36.812Z,101538.03
2018-09-04T03:55:05.434Z,101533.25
2018-09-04T03:57:34.103Z,101488.35
2018-09-04T04:00:02.614Z,101529.28
2018-09-04T04:02:31.225Z,101529.28
2018-09-04T04:04:59.742Z,101521.33
2018-09-04T04:07:28.439Z,101523.91
2018-09-04T04:09:56.959Z,101523.00
2018-09-04T04:12:25.483Z,101527.81
2018-09-04T04:17:28.004Z,101533.31
2018-09-04T04:19:56.650Z,101519.69
2018-09-04T04:22:25.195Z,101522.20
2018-09-04T04:24:53.737Z,101524.05
2018-09-04T04:27:22.318Z,101521.55
2018-09-04T04:29:51.190Z,101531.35
2018-09-04T04:32:19.872Z,101521.23
2018-09-04T04:34:48.867Z,101517.33
2018-09-04T04:37:17.466Z,101517.86
2018-09-04T04:39:46.095Z,101524.11
2018-09-04T04:42:14.720Z,101524.63
2018-09-04T04:44:43.342Z,101525.95
2018-09-04T04:47:11.868Z,101529.86
2018-09-04T04:49:40.404Z,101526.20
2018-09-04T04:52:09.094Z,101460.13
2018-09-04T04:54:37.732Z,101518.89
2018-09-04T04:57:06.593Z,101518.52
2018-09-04T04:59:35.105Z,101516.39
2018-09-04T05:02:03.747Z,101518.09
2018-09-04T05:04:32.231Z,101525.14
2018-09-04T05:07:00.734Z,101523.33
2018-09-04T05:09:29.558Z,101532.94
2018-09-04T05:11:58.106Z,101531.20
2018-09-04T05:14:26.769Z,101531.13
2018-09-04T05:16:55.388Z,101526.17
2018-09-04T05:19:24.325Z,101510.41
2018-09-04T05:21:52.861Z,101522.43
2018-09-04T05:26:41.502Z,101519.09
2018-09-04T05:29:10.186Z,101517.21
2018-09-04T05:31:43.008Z,101514.41
2018-09-04T05:34:11.790Z,101517.70
2018-09-04T05:36:40.387Z,101516.92
2018-09-04T05:39:10.553Z,101519.76
2018-09-04T05:41:39.021Z,101527.64
2018-09-04T05:44:07.754Z,101519.00
2018-09-04T05:46:50.187Z,101518.16
2018-09-04T05:49:21.106Z,101450.23
2018-09-04T05:51:49.686Z,101519.66
2018-09-04T05:54:18.674Z,101517.30
2018-09-04T05:56:47.199Z,101515.66
2018-09-04T05:59:16.012Z,101522.38
2018-09-04T06:01:44.502Z,101527.75
2018-09-04T06:04:13.061Z,101527.27
2018-09-04T06:06:41.967Z,101532.02
2018-09-04T06:09:10.498Z,101531.45
2018-09-04T06:11:39.390Z,101531.88
2018-09-04T06:14:08.355Z,101529.69
2018-09-04T06:16:37.422Z,101524.25
2018-09-04T06:19:08.978Z,101525.86
2018-09-04T06:21:41.825Z,101527.30
2018-09-04T06:24:13.366Z,101531.02
2018-09-04T06:26:52.896Z,101529.75
2018-09-04T06:29:24.808Z,101530.76
2018-09-04T06:31:53.442Z,101521.70
2018-09-04T06:34:22.587Z,101482.13
2018-09-04T06:36:51.163Z,101525.96
2018-09-04T06:39:22.109Z,101532.08
2018-09-04T06:41:50.922Z,101538.75
2018-09-04T06:44:19.821Z,101537.05
2018-09-04T06:46:48.373Z,101533.66
2018-09-04T06:49:17.202Z,101529.86
2018-09-04T06:51:45.913Z,101521.87
2018-09-04T06:54:14.587Z,101513.45
2018-09-04T06:56:43.150Z,101519.46
2018-09-04T06:59:11.966Z,101501.95
2018-09-04T07:01:40.560Z,101485.98
2018-09-04T07:04:09.110Z,101522.15
2018-09-04T07:06:37.886Z,101523.66
2018-09-04T07:09:09.700Z,101515.88
2018-09-04T07:11:38.274Z,101520.06
2018-09-04T07:14:07.062Z,101521.48
2018-09-04T07:16:35.730Z,101448.88
2018-09-04T07:19:04.275Z,101535.28
2018-09-04T07:21:32.847Z,101539.86
2018-09-04T07:24:01.495Z,101526.91
2018-09-04T07:26:30.186Z,101538.70
2018-09-04T07:28:59.058Z,101532.44
2018-09-04T07:31:28.294Z,101541.00
2018-09-04T07:33:56.867Z,101541.35
2018-09-04T07:36:25.532Z,101538.59
2018-09-04T07:38:54.379Z,101541.14
2018-09-04T07:41:22.948Z,101534.69
2018-09-04T07:43:52.754Z,101537.78
2018-09-04T07:46:21.228Z,101537.63
2018-09-04T07:48:49.898Z,101532.16
2018-09-04T07:51:18.351Z,101541.38
2018-09-04T07:53:46.982Z,101538.17
2018-09-04T07:56:16.643Z,101455.98
2018-09-04T07:58:45.446Z,101537.45
2018-09-04T08:01:14.239Z,101546.91
2018-09-04T08:03:42.790Z,101543.16
2018-09-04T08:06:11.606Z,101455.29
2018-09-04T08:08:40.186Z,101540.23
2018-09-04T08:11:09.010Z,101546.34
2018-09-04T08:13:37.498Z,101542.33
2018-09-04T08:16:06.545Z,101545.52
2018-09-04T08:18:35.062Z,101536.49
2018-09-04T08:21:03.531Z,101527.70
2018-09-04T08:23:32.170Z,101525.66
2018-09-04T08:26:00.745Z,101515.03
2018-09-04T08:28:29.620Z,101451.88
2018-09-04T08:30:58.205Z,101519.64
2018-09-04T08:33:26.764Z,101513.74
2018-09-04T08:35:55.286Z,101518.23
2018-09-04T08:38:23.974Z,101480.84
2018-09-04T08:40:52.547Z,101515.41
2018-09-04T08:43:21.133Z,101519.09
2018-09-04T08:45:49.723Z,101530.11
2018-09-04T08:48:19.449Z,101524.30
2018-09-04T08:50:48.155Z,101520.05
2018-09-04T08:53:17.550Z,101509.68
2018-09-04T08:55:46.385Z,101513.77
2018-09-04T08:58:14.862Z,101513.78
2018-09-04T09:00:43.493Z,101506.64
2018-09-04T09:03:12.014Z,101504.70
2018-09-04T09:05:40.703Z,101502.63
2018-09-04T09:08:09.206Z,101473.98
2018-09-04T09:10:37.695Z,101506.79
2018-09-04T09:13:06.602Z,101501.79
2018-09-04T09:15:35.090Z,101510.46
2018-09-04T09:18:03.731Z,101508.24
2018-09-04T09:20:32.218Z,101506.92
2018-09-04T09:23:00.812Z,101505.23
2018-09-04T09:25:29.297Z,101501.56
2018-09-04T09:27:57.887Z,101497.78
2018-09-04T09:30:26.407Z,101488.23
2018-09-04T09:32:54.946Z,101489.28
2018-09-04T09:35:23.542Z,101453.19
2018-09-04T09:37:52.258Z,101489.23
2018-09-04T09:40:20.974Z,101492.88
2018-09-04T09:42:49.564Z,101488.69
2018-09-04T09:45:18.171Z,101480.63
2018-09-04T09:47:48.614Z,101489.42
2018-09-04T09:50:17.858Z,101488.69
2018-09-04T09:52:46.938Z,101483.31
2018-09-04T09:55:15.492Z,101480.20
2018-09-04T09:57:44.001Z,101462.12
2018-09-04T10:00:17.705Z,101476.78
2018-09-04T10:02:50.126Z,101485.48
2018-09-04T10:05:18.838Z,101471.52
2018-09-04T10:07:47.424Z,101468.75
2018-09-04T10:10:15.960Z,101468.09
2018-09-04T10:12:44.452Z,101463.00
2018-09-04T10:15:13.314Z,101464.77
2018-09-04T10:17:41.859Z,101467.45
2018-09-04T10:20:10.640Z,101458.38
2018-09-04T10:22:39.530Z,101460.67
2018-09-04T10:25:09.122Z,101456.16
2018-09-04T10:27:38.005Z,101451.84
2018-09-04T10:30:07.335Z,101452.73
2018-09-04T10:32:35.886Z,101451.30
2018-09-04T10:35:04.450Z,101457.25
2018-09-04T10:37:33.218Z,101454.75
2018-09-04T10:40:07.240Z,101453.61
2018-09-04T10:42:35.719Z,101446.27
2018-09-04T10:45:04.379Z,101443.86
2018-09-04T10:47:32.958Z,101438.52
2018-09-04T10:50:01.498Z,101439.11
2018-09-04T10:52:30.219Z,101391.16
2018-09-04T10:54:58.946Z,101435.83
2018-09-04T10:57:27.562Z,101439.79
2018-09-04T10:59:56.209Z,101444.40
2018-09-04T11:02:24.883Z,101436.09
2018-09-04T11:04:53.454Z,101445.91
2018-09-04T11:07:22.024Z,101444.91
2018-09-04T11:09:51.661Z,101445.05
2018-09-04T11:12:20.166Z,101436.55
2018-09-04T11:14:48.936Z,101438.23
2018-09-04T11:17:17.421Z,101432.24
2018-09-04T11:19:45.918Z,101430.41
2018-09-04T11:22:14.534Z,101426.84
2018-09-04T11:24:43.091Z,101429.63
2018-09-04T11:27:11.570Z,101429.06
2018-09-04T11:29:40.079Z,101432.53
2018-09-04T11:32:08.821Z,101428.00
2018-09-04T11:34:37.395Z,101428.43
2018-09-04T11:37:06.050Z,101427.57
2018-09-04T11:39:34.514Z,101427.71
2018-09-04T11:42:03.060Z,101423.67
2018-09-04T11:44:31.534Z,101430.55
2018-09-04T11:47:01.763Z,101428.05
2018-09-04T11:49:30.278Z,101420.20
2018-09-04T11:51:58.752Z,101420.88
2018-09-04T11:54:28.180Z,101421.41
2018-09-04T11:56:56.669Z,101426.50
2018-09-04T11:59:25.842Z,101424.72
2018-09-04T12:01:57.280Z,101418.97
2018-09-04T12:04:25.927Z,101422.41
2018-09-04T12:06:54.462Z,101418.73
2018-09-04T12:09:23.043Z,101342.73
2018-09-04T12:11:54.145Z,101419.41
2018-09-04T12:14:23.123Z,101427.62
2018-09-04T12:16:51.910Z,101434.22
2018-09-04T12:19:21.323Z,101431.98
2018-09-04T12:21:49.935Z,101431.33
2018-09-04T12:24:18.989Z,101420.71
2018-09-04T12:26:47.489Z,101422.58
2018-09-04T12:29:18.058Z,101422.66
2018-09-04T12:31:46.593Z,101419.71
2018-09-04T12:34:15.472Z,101426.53
2018-09-04T12:36:43.967Z,101412.91
2018-09-04T12:39:12.579Z,101414.56
2018-09-04T12:41:41.153Z,101420.86
2018-09-04T12:44:09.889Z,101423.08
2018-09-04T12:46:38.603Z,101425.09
2018-09-04T12:49:07.118Z,101419.18
2018-09-04T12:51:35.839Z,101420.39
2018-09-04T12:54:04.443Z,101414.70
2018-09-04T12:56:33.054Z,101416.64
2018-09-04T12:59:01.566Z,101417.70
2018-09-04T13:01:30.208Z,101412.54
2018-09-04T13:03:59.714Z,101407.72
2018-09-04T13:06:28.230Z,101406.03
2018-09-04T13:08:56.969Z,101399.52
2018-09-04T13:11:25.533Z,101411.39
2018-09-04T13:13:54.422Z,101408.55
2018-09-04T13:16:23.062Z,101403.30
2018-09-04T13:18:51.858Z,101317.08
2018-09-04T13:21:22.745Z,101400.89
2018-09-04T13:23:54.093Z,101388.91
2018-09-04T13:26:22.618Z,101394.24
2018-09-04T13:28:51.226Z,101402.09
2018-09-04T13:31:19.960Z,101396.61
2018-09-04T13:33:48.643Z,101395.89
2018-09-04T13:36:17.202Z,101395.45
2018-09-04T13:38:46.021Z,101398.39
2018-09-04T13:41:14.562Z,101398.91
2018-09-04T13:43:43.203Z,101387.41
2018-09-04T13:46:11.702Z,101390.45
2018-09-04T13:48:40.332Z,101395.50
2018-09-04T13:51:11.012Z,101394.78
2018-09-04T13:53:39.662Z,101390.25
2018-09-04T13:56:08.334Z,101390.63
2018-09-04T13:58:36.790Z,101389.28
2018-09-04T14:01:05.584Z,101390.28
2018-09-04T14:03:35.248Z,101395.10
2018-09-04T14:06:03.983Z,101363.84
2018-09-04T14:08:32.458Z,101394.24
2018-09-04T14:11:01.432Z,101389.42
2018-09-04T14:13:29.890Z,101379.99
2018-09-04T14:16:00.858Z,101377.78
2018-09-04T14:18:29.354Z,101378.84
2018-09-04T14:20:57.958Z,101383.08
2018-09-04T14:23:26.495Z,101383.13
2018-09-04T14:25:55.028Z,101381.64
2018-09-04T14:28:40.964Z,101374.80
2018-09-04T14:30:52.229Z,101392.55
2018-09-04T14:33:21.109Z,101301.31
2018-09-04T14:35:49.739Z,101380.62
2018-09-04T14:38:21.664Z,101383.85
2018-09-04T14:40:50.606Z,101384.14
2018-09-04T14:43:19.343Z,101385.20
2018-09-04T14:45:47.938Z,101383.77
2018-09-04T14:48:16.590Z,101383.70
2018-09-04T14:50:45.096Z,101381.05
2018-09-04T14:53:13.726Z,101384.28
2018-09-04T14:55:42.410Z,101387.48
2018-09-04T14:58:10.996Z,101385.49
2018-09-04T15:00:40.094Z,101381.78
2018-09-04T15:03:08.683Z,101387.22
2018-09-04T15:05:37.589Z,101384.97
2018-09-04T15:08:06.154Z,101383.17
2018-09-04T15:10:34.678Z,101386.36
2018-09-04T15:13:04.355Z,101390.19
2018-09-04T15:15:33.053Z,101395.16
2018-09-04T15:18:01.947Z,101396.05
2018-09-04T15:20:30.547Z,101399.77
2018-09-04T15:22:59.310Z,101359.25
2018-09-04T15:25:27.923Z,101407.73
2018-09-04T15:27:56.714Z,101401.52
2018-09-04T15:30:25.214Z,101399.26
2018-09-04T15:32:55.889Z,101401.88
2018-09-04T15:35:24.396Z,101401.19
2018-09-04T15:37:53.050Z,101400.44
2018-09-04T15:40:21.802Z,101406.23
2018-09-04T15:42:50.384Z,101403.44
2018-09-04T15:45:19.170Z,101396.03
2018-09-04T15:47:47.654Z,101407.88
2018-09-04T15:50:16.303Z,101409.60
2018-09-04T15:52:44.830Z,101407.11
2018-09-04T15:55:13.648Z,101405.56
2018-09-04T15:57:42.206Z,101399.89
2018-09-04T16:00:10.747Z,101399.34
2018-09-04T16:02:39.298Z,101406.11
2018-09-04T16:05:07.813Z,101407.39
2018-09-04T16:07:36.744Z,101407.86
2018-09-04T16:10:05.503Z,101412.23
2018-09-04T16:12:34.186Z,101402.03
2018-09-04T16:15:02.715Z,101412.36
2018-09-04T16:17:31.343Z,101415.61
2018-09-04T16:20:00.582Z,101416.78
2018-09-04T16:22:29.422Z,101415.02
2018-09-04T16:24:58.133Z,101366.03
2018-09-04T16:27:26.691Z,101418.08
2018-09-04T16:29:55.564Z,101374.60
2018-09-04T16:32:24.210Z,101421.78
2018-09-04T16:34:52.947Z,101420.71
2018-09-04T16:37:21.366Z,101420.95
2018-09-04T16:39:50.205Z,101420.22
2018-09-04T16:42:18.698Z,101422.97
2018-09-04T16:44:47.287Z,101429.10
2018-09-04T16:47:15.995Z,101423.91
2018-09-04T16:49:44.470Z,101425.17
2018-09-04T16:52:13.303Z,101432.70
2018-09-04T16:54:42.913Z,101432.88
2018-09-04T16:57:11.723Z,101394.98
2018-09-04T16:59:40.287Z,101429.78
2018-09-04T17:02:08.904Z,101429.08
2018-09-04T17:04:37.515Z,101427.00
2018-09-04T17:07:06.046Z,101424.58
2018-09-04T17:09:34.675Z,101420.08
2018-09-04T17:12:03.188Z,101420.98
2018-09-04T17:14:31.835Z,101425.50
2018-09-04T17:17:00.326Z,101426.50
2018-09-04T17:19:29.000Z,101425.77
2018-09-04T17:21:57.711Z,101423.81
2018-09-04T17:24:26.323Z,101428.02
2018-09-04T17:26:54.893Z,101424.72
2018-09-04T17:29:23.508Z,101378.24
2018-09-04T17:31:52.171Z,101429.91
2018-09-04T17:34:20.634Z,101429.43
2018-09-04T17:36:50.328Z,101432.98
2018-09-04T17:39:18.790Z,101432.43
2018-09-04T17:41:47.530Z,101429.16
2018-09-04T17:44:15.999Z,101437.08
2018-09-04T17:46:44.605Z,101438.08
2018-09-04T17:49:13.190Z,101438.33
2018-09-04T17:51:42.403Z,101437.48
2018-09-04T17:54:11.803Z,101442.75
2018-09-04T17:56:40.409Z,101438.84
2018-09-04T17:59:08.969Z,101433.23
2018-09-04T18:01:37.493Z,101438.25
2018-09-04T18:04:06.692Z,101442.77
2018-09-04T18:06:35.238Z,101438.97
2018-09-04T18:09:04.983Z,101444.23
2018-09-04T18:11:33.618Z,101446.67
2018-09-04T18:14:02.562Z,101444.83
2018-09-04T18:16:31.756Z,101445.31
2018-09-04T18:19:00.646Z,101441.42
2018-09-04T18:21:29.331Z,101447.27
2018-09-04T18:23:58.254Z,101446.64
2018-09-04T18:26:26.854Z,101452.48
2018-09-04T18:28:55.534Z,101452.01
2018-09-04T18:31:24.175Z,101447.20
2018-09-04T18:33:52.758Z,101460.22
2018-09-04T18:36:21.875Z,101453.98
2018-09-04T18:38:50.456Z,101451.30
2018-09-04T18:41:19.300Z,101424.05
2018-09-04T18:43:47.910Z,101463.81
2018-09-04T18:46:16.834Z,101466.95
2018-09-04T18:48:45.392Z,101467.55
2018-09-04T18:51:14.193Z,101468.76
2018-09-04T18:53:42.782Z,101479.08
2018-09-04T18:56:11.250Z,101479.42
2018-09-04T18:58:41.560Z,101476.38
2018-09-04T19:01:10.155Z,101475.61
2018-09-04T19:03:38.878Z,101475.58
2018-09-04T19:06:07.447Z,101476.76
2018-09-04T19:08:36.198Z,101480.00
2018-09-04T19:11:05.246Z,101482.06
2018-09-04T19:13:34.042Z,101473.51
2018-09-04T19:16:02.764Z,101474.28
2018-09-04T19:18:31.322Z,101473.78
2018-09-04T19:21:00.015Z,101482.98
2018-09-04T19:23:28.507Z,101481.14
2018-09-04T19:25:57.334Z,101487.69
2018-09-04T19:28:26.014Z,101485.45
2018-09-04T19:30:54.788Z,101443.34
2018-09-04T19:33:23.448Z,101485.36
2018-09-04T19:35:52.280Z,101481.78
2018-09-04T19:38:20.750Z,101482.22
2018-09-04T19:40:49.242Z,101482.91
2018-09-04T19:43:17.915Z,101482.51
2018-09-04T19:45:46.955Z,101483.70
2018-09-04T19:48:15.671Z,101483.52
2018-09-04T19:50:44.371Z,101488.56
2018-09-04T19:53:13.248Z,101452.98
2018-09-04T19:55:42.446Z,101490.09
2018-09-04T19:58:11.113Z,101494.97
2018-09-04T20:00:39.990Z,101494.81
2018-09-04T20:03:08.544Z,101498.66
2018-09-04T20:05:37.084Z,101500.31
2018-09-04T20:08:05.842Z,101497.48
2018-09-04T20:10:34.414Z,101449.39
2018-09-04T20:13:03.091Z,101494.36
2018-09-04T20:15:31.992Z,101496.77
2018-09-04T20:18:00.471Z,101488.00
2018-09-04T20:20:29.262Z,101489.80
2018-09-04T20:22:57.874Z,101491.64
2018-09-04T20:25:26.507Z,101494.78
2018-09-04T20:27:55.029Z,101493.79
2018-09-04T20:30:23.539Z,101497.09
2018-09-04T20:32:52.490Z,101500.26
2018-09-04T20:35:21.031Z,101498.92
2018-09-04T20:37:49.938Z,101503.30
2018-09-04T20:40:18.446Z,101500.63
2018-09-04T20:42:47.079Z,101497.95
2018-09-04T20:45:15.658Z,101497.59
2018-09-04T20:47:44.136Z,101501.96
2018-09-04T20:50:12.936Z,101500.63
2018-09-04T20:52:41.508Z,101500.26
2018-09-04T20:55:10.416Z,101509.98
2018-09-04T20:57:39.173Z,101498.92
2018-09-04T21:00:25.934Z,101496.83
2018-09-04T21:03:05.825Z,101496.46
2018-09-04T21:05:45.724Z,101499.13
2018-09-04T21:08:21.392Z,101495.70
2018-09-04T21:10:50.538Z,101493.03
2018-09-04T21:13:19.240Z,101492.16
2018-09-04T21:15:47.786Z,101495.70
2018-09-04T21:18:16.274Z,101495.33
2018-09-04T21:20:45.080Z,101496.27
2018-09-04T21:23:13.705Z,101490.93
2018-09-04T21:25:42.392Z,101489.59
2018-09-04T21:28:10.858Z,101492.27
2018-09-04T21:30:39.454Z,101491.03
2018-09-04T21:33:08.144Z,101493.23
2018-09-04T21:35:36.622Z,101491.53
2018-09-04T21:38:05.410Z,101485.43
2018-09-04T21:40:33.878Z,101492.11
2018-09-04T21:43:02.584Z,101492.58
2018-09-04T21:45:31.077Z,101489.08
2018-09-04T21:47:59.646Z,101498.13
2018-09-04T21:50:28.189Z,101501.30
2018-09-04T21:52:56.658Z,101493.86
2018-09-04T21:55:25.553Z,101439.92
2018-09-04T21:57:54.135Z,101502.44
2018-09-04T22:00:25.659Z,101408.98
2018-09-04T22:02:54.995Z,101508.75
2018-09-04T22:05:25.226Z,101462.93
2018-09-04T22:07:54.947Z,101497.80
2018-09-04T22:10:23.982Z,101497.30
2018-09-04T22:12:52.456Z,101497.91
2018-09-04T22:15:21.462Z,101497.91
2018-09-04T22:17:50.140Z,101497.04
2018-09-04T22:20:18.793Z,101495.34
2018-09-04T22:22:47.306Z,101499.81
2018-09-04T22:25:15.846Z,101499.81
2018-09-04T22:27:44.478Z,101492.67
2018-09-04T22:30:13.086Z,101499.81
2018-09-04T22:32:41.843Z,101427.20
2018-09-04T22:35:10.476Z,101496.38
2018-09-04T22:37:39.246Z,101503.55
2018-09-04T22:40:08.046Z,101502.32
2018-09-04T22:42:36.602Z,101511.56
2018-09-04T22:45:05.310Z,101511.66
2018-09-04T22:47:33.793Z,101511.16
2018-09-04T22:50:07.507Z,101508.59
2018-09-04T22:52:36.445Z,101510.33
2018-09-04T22:55:07.359Z,101511.66
2018-09-04T22:57:36.069Z,101465.70
2018-09-04T23:00:04.637Z,101506.33
2018-09-04T23:02:33.736Z,101509.00
2018-09-04T23:05:02.786Z,101509.00
2018-09-04T23:07:31.520Z,101506.33
2018-09-04T23:10:00.211Z,101509.36
2018-09-04T23:12:28.829Z,101511.66
2018-09-04T23:14:57.425Z,101513.94
2018-09-04T23:17:26.118Z,101510.80
2018-09-04T23:19:54.596Z,101509.83
2018-09-04T23:22:23.170Z,101509.73
2018-09-04T23:24:51.898Z,101423.56
2018-09-04T23:27:20.498Z,101508.79
2018-09-04T23:29:49.876Z,101506.95
2018-09-04T23:32:19.245Z,101507.83
2018-09-04T23:34:48.116Z,101507.25
2018-09-04T23:37:16.574Z,101502.84
2018-09-04T23:39:45.078Z,101505.52
2018-09-04T23:42:13.734Z,101474.23
2018-09-04T23:44:42.226Z,101505.91
2018-09-04T23:47:11.104Z,101509.05
2018-09-04T23:49:39.626Z,101504.19
2018-09-04T23:52:08.702Z,101502.48
2018-09-04T23:54:37.175Z,101502.02
2018-09-04T23:57:06.006Z,101497.14
2018-09-04T23:59:34.577Z,101498.11
